sensor_id;sensor_type;location;lat;lon;timestamp;temperature;humidity
32187;DHT22;18686;53.084;8.872;2023-04-29T00:02:14;10.70;99.90
32187;DHT22;18686;53.084;8.872;2023-04-29T00:04:42;10.70;99.90
32187;DHT22;18686;53.084;8.872;2023-04-29T00:07:11;10.70;99.90
32187;DHT22;18686;53.084;8.872;2023-04-29T00:09:41;10.70;99.90
32187;DHT22;18686;53.084;8.872;2023-04-29T00:12:11;10.70;99.90
32187;DHT22;18686;53.084;8.872;2023-04-29T00:14:39;10.70;99.90
32187;DHT22;18686;53.084;8.872;2023-04-29T00:17:09;10.70;99.90
32187;DHT22;18686;53.084;8.872;2023-04-29T00:19:37;10.60;99.90
32187;DHT22;18686;53.084;8.872;2023-04-29T00:22:05;10.70;99.90
32187;DHT22;18686;53.084;8.872;2023-04-29T00:24:34;10.70;99.90
32187;DHT22;18686;53.084;8.872;2023-04-29T00:27:02;10.60;99.90
32187;DHT22;18686;53.084;8.872;2023-04-29T00:29:32;10.70;99.90
32187;DHT22;18686;53.084;8.872;2023-04-29T00:32:01;10.60;99.90
32187;DHT22;18686;53.084;8.872;2023-04-29T00:34:29;10.60;99.90
32187;DHT22;18686;53.084;8.872;2023-04-29T00:36:57;10.60;99.90
32187;DHT22;18686;53.084;8.872;2023-04-29T00:39:25;10.60;99.90
32187;DHT22;18686;53.084;8.872;2023-04-29T00:41:53;10.60;99.90
32187;DHT22;18686;53.084;8.872;2023-04-29T00:44:21;10.60;99.90
32187;DHT22;18686;53.084;8.872;2023-04-29T00:46:51;10.60;99.90
32187;DHT22;18686;53.084;8.872;2023-04-29T00:49:19;10.60;99.90
32187;DHT22;18686;53.084;8.872;2023-04-29T00:51:48;10.50;99.90
32187;DHT22;18686;53.084;8.872;2023-04-29T00:54:17;10.50;99.90
32187;DHT22;18686;53.084;8.872;2023-04-29T00:56:45;10.50;99.90
32187;DHT22;18686;53.084;8.872;2023-04-29T00:59:14;10.40;99.90
32187;DHT22;18686;53.084;8.872;2023-04-29T01:01:43;10.40;99.90
32187;DHT22;18686;53.084;8.872;2023-04-29T01:04:14;10.40;99.90
32187;DHT22;18686;53.084;8.872;2023-04-29T01:06:49;10.40;99.90
32187;DHT22;18686;53.084;8.872;2023-04-29T01:09:28;10.30;99.90
32187;DHT22;18686;53.084;8.872;2023-04-29T01:12:07;10.30;99.90
32187;DHT22;18686;53.084;8.872;2023-04-29T01:14:38;10.30;99.90
32187;DHT22;18686;53.084;8.872;2023-04-29T01:17:12;10.30;99.90
32187;DHT22;18686;53.084;8.872;2023-04-29T01:19:47;10.20;99.90
32187;DHT22;18686;53.084;8.872;2023-04-29T01:22:17;10.20;99.90
32187;DHT22;18686;53.084;8.872;2023-04-29T01:24:47;10.20;99.90
32187;DHT22;18686;53.084;8.872;2023-04-29T01:27:27;10.20;99.90
32187;DHT22;18686;53.084;8.872;2023-04-29T01:30:11;10.10;99.90
32187;DHT22;18686;53.084;8.872;2023-04-29T01:32:51;10.10;99.90
32187;DHT22;18686;53.084;8.872;2023-04-29T01:35:29;10.10;99.90
32187;DHT22;18686;53.084;8.872;2023-04-29T01:38:09;10.10;99.90
32187;DHT22;18686;53.084;8.872;2023-04-29T01:40:47;10.10;99.90
32187;DHT22;18686;53.084;8.872;2023-04-29T01:43:25;10.00;99.90
32187;DHT22;18686;53.084;8.872;2023-04-29T01:45:57;10.00;99.90
32187;DHT22;18686;53.084;8.872;2023-04-29T01:48:27;10.00;99.90
32187;DHT22;18686;53.084;8.872;2023-04-29T01:50:55;10.00;99.90
32187;DHT22;18686;53.084;8.872;2023-04-29T01:53:23;10.00;99.90
32187;DHT22;18686;53.084;8.872;2023-04-29T01:55:53;10.00;99.90
32187;DHT22;18686;53.084;8.872;2023-04-29T01:58:25;10.00;99.90
32187;DHT22;18686;53.084;8.872;2023-04-29T02:01:08;10.00;99.90
32187;DHT22;18686;53.084;8.872;2023-04-29T02:03:38;10.00;99.90
32187;DHT22;18686;53.084;8.872;2023-04-29T02:06:09;10.00;99.90
32187;DHT22;18686;53.084;8.872;2023-04-29T02:08:37;10.00;99.90
32187;DHT22;18686;53.084;8.872;2023-04-29T02:11:07;9.90;99.90
32187;DHT22;18686;53.084;8.872;2023-04-29T02:13:39;9.90;99.90
32187;DHT22;18686;53.084;8.872;2023-04-29T02:16:09;9.90;99.90
32187;DHT22;18686;53.084;8.872;2023-04-29T02:18:42;9.90;99.90
32187;DHT22;18686;53.084;8.872;2023-04-29T02:21:10;9.90;99.90
32187;DHT22;18686;53.084;8.872;2023-04-29T02:23:38;9.90;99.90
32187;DHT22;18686;53.084;8.872;2023-04-29T02:26:07;9.90;99.90
32187;DHT22;18686;53.084;8.872;2023-04-29T02:28:36;9.90;99.90
32187;DHT22;18686;53.084;8.872;2023-04-29T02:31:04;9.80;99.90
32187;DHT22;18686;53.084;8.872;2023-04-29T02:33:33;9.80;99.90
32187;DHT22;18686;53.084;8.872;2023-04-29T02:36:01;9.80;99.90
32187;DHT22;18686;53.084;8.872;2023-04-29T02:38:29;9.80;99.90
32187;DHT22;18686;53.084;8.872;2023-04-29T02:40:57;9.80;99.90
32187;DHT22;18686;53.084;8.872;2023-04-29T02:43:27;9.70;99.90
32187;DHT22;18686;53.084;8.872;2023-04-29T02:45:57;9.70;99.90
32187;DHT22;18686;53.084;8.872;2023-04-29T02:48:26;9.70;99.90
32187;DHT22;18686;53.084;8.872;2023-04-29T02:50:54;9.70;99.90
32187;DHT22;18686;53.084;8.872;2023-04-29T02:53:22;9.70;99.90
32187;DHT22;18686;53.084;8.872;2023-04-29T02:55:50;9.60;99.90
32187;DHT22;18686;53.084;8.872;2023-04-29T02:58:18;9.60;99.90
32187;DHT22;18686;53.084;8.872;2023-04-29T03:00:48;9.60;99.90
32187;DHT22;18686;53.084;8.872;2023-04-29T03:03:16;9.60;99.90
32187;DHT22;18686;53.084;8.872;2023-04-29T03:05:45;9.60;99.90
32187;DHT22;18686;53.084;8.872;2023-04-29T03:08:13;9.60;99.90
32187;DHT22;18686;53.084;8.872;2023-04-29T03:10:42;9.70;99.90
32187;DHT22;18686;53.084;8.872;2023-04-29T03:13:10;9.70;99.90
32187;DHT22;18686;53.084;8.872;2023-04-29T03:15:39;9.70;99.90
32187;DHT22;18686;53.084;8.872;2023-04-29T03:18:09;9.60;99.90
32187;DHT22;18686;53.084;8.872;2023-04-29T03:20:40;9.60;99.90
32187;DHT22;18686;53.084;8.872;2023-04-29T03:23:08;9.60;99.90
32187;DHT22;18686;53.084;8.872;2023-04-29T03:25:36;9.60;99.90
32187;DHT22;18686;53.084;8.872;2023-04-29T03:28:06;9.60;99.90
32187;DHT22;18686;53.084;8.872;2023-04-29T03:30:35;9.50;99.90
32187;DHT22;18686;53.084;8.872;2023-04-29T03:33:04;9.50;99.90
32187;DHT22;18686;53.084;8.872;2023-04-29T03:35:33;9.50;99.90
32187;DHT22;18686;53.084;8.872;2023-04-29T03:38:25;9.50;99.90
32187;DHT22;18686;53.084;8.872;2023-04-29T03:40:54;9.50;99.90
32187;DHT22;18686;53.084;8.872;2023-04-29T03:43:22;9.50;99.90
32187;DHT22;18686;53.084;8.872;2023-04-29T03:45:50;9.50;99.90
32187;DHT22;18686;53.084;8.872;2023-04-29T03:48:21;9.40;99.90
32187;DHT22;18686;53.084;8.872;2023-04-29T03:50:52;9.40;99.90
32187;DHT22;18686;53.084;8.872;2023-04-29T03:53:21;9.40;99.90
32187;DHT22;18686;53.084;8.872;2023-04-29T03:55:49;9.40;99.90
32187;DHT22;18686;53.084;8.872;2023-04-29T03:58:17;9.40;99.90
32187;DHT22;18686;53.084;8.872;2023-04-29T04:00:45;9.40;99.90
32187;DHT22;18686;53.084;8.872;2023-04-29T04:03:19;9.40;99.90
32187;DHT22;18686;53.084;8.872;2023-04-29T04:05:49;9.40;99.90
32187;DHT22;18686;53.084;8.872;2023-04-29T04:08:18;9.40;99.90
32187;DHT22;18686;53.084;8.872;2023-04-29T04:10:51;9.40;99.90
32187;DHT22;18686;53.084;8.872;2023-04-29T04:13:33;9.40;99.90
32187;DHT22;18686;53.084;8.872;2023-04-29T04:16:02;9.40;99.90
32187;DHT22;18686;53.084;8.872;2023-04-29T04:18:30;9.40;99.90
32187;DHT22;18686;53.084;8.872;2023-04-29T04:21:04;9.40;99.90
32187;DHT22;18686;53.084;8.872;2023-04-29T04:23:34;9.30;99.90
32187;DHT22;18686;53.084;8.872;2023-04-29T04:26:03;9.40;99.90
32187;DHT22;18686;53.084;8.872;2023-04-29T04:28:53;9.40;99.90
32187;DHT22;18686;53.084;8.872;2023-04-29T04:31:42;9.40;99.90
32187;DHT22;18686;53.084;8.872;2023-04-29T04:34:13;9.40;99.90
32187;DHT22;18686;53.084;8.872;2023-04-29T04:36:43;9.40;99.90
32187;DHT22;18686;53.084;8.872;2023-04-29T04:39:13;9.40;99.90
32187;DHT22;18686;53.084;8.872;2023-04-29T04:41:41;9.40;99.90
32187;DHT22;18686;53.084;8.872;2023-04-29T04:44:10;9.40;99.90
32187;DHT22;18686;53.084;8.872;2023-04-29T04:46:59;9.40;99.90
32187;DHT22;18686;53.084;8.872;2023-04-29T04:49:54;9.40;99.90
32187;DHT22;18686;53.084;8.872;2023-04-29T04:52:22;9.40;99.90
32187;DHT22;18686;53.084;8.872;2023-04-29T04:55:21;9.50;99.90
32187;DHT22;18686;53.084;8.872;2023-04-29T04:57:50;9.50;99.90
32187;DHT22;18686;53.084;8.872;2023-04-29T05:00:18;9.50;99.90
32187;DHT22;18686;53.084;8.872;2023-04-29T05:02:47;9.50;99.90
32187;DHT22;18686;53.084;8.872;2023-04-29T05:05:15;9.50;99.90
32187;DHT22;18686;53.084;8.872;2023-04-29T05:07:43;9.50;99.90
32187;DHT22;18686;53.084;8.872;2023-04-29T05:10:12;9.50;99.90
32187;DHT22;18686;53.084;8.872;2023-04-29T05:12:47;9.60;99.90
32187;DHT22;18686;53.084;8.872;2023-04-29T05:15:15;9.60;99.90
32187;DHT22;18686;53.084;8.872;2023-04-29T05:17:47;9.70;99.90
32187;DHT22;18686;53.084;8.872;2023-04-29T05:20:15;9.80;99.90
32187;DHT22;18686;53.084;8.872;2023-04-29T05:22:43;9.80;99.90
32187;DHT22;18686;53.084;8.872;2023-04-29T05:25:13;9.90;99.90
32187;DHT22;18686;53.084;8.872;2023-04-29T05:27:41;9.80;99.90
32187;DHT22;18686;53.084;8.872;2023-04-29T05:30:15;9.90;99.90
32187;DHT22;18686;53.084;8.872;2023-04-29T05:32:45;9.90;99.90
32187;DHT22;18686;53.084;8.872;2023-04-29T05:35:16;9.90;99.90
32187;DHT22;18686;53.084;8.872;2023-04-29T05:37:44;9.90;99.90
32187;DHT22;18686;53.084;8.872;2023-04-29T05:40:34;10.00;99.90
32187;DHT22;18686;53.084;8.872;2023-04-29T05:43:35;10.00;99.90
32187;DHT22;18686;53.084;8.872;2023-04-29T05:46:05;10.10;99.90
32187;DHT22;18686;53.084;8.872;2023-04-29T05:48:33;10.20;99.90
32187;DHT22;18686;53.084;8.872;2023-04-29T05:51:02;10.20;99.90
32187;DHT22;18686;53.084;8.872;2023-04-29T05:53:31;10.30;99.90
32187;DHT22;18686;53.084;8.872;2023-04-29T05:56:00;10.30;99.90
32187;DHT22;18686;53.084;8.872;2023-04-29T05:58:30;10.30;99.90
32187;DHT22;18686;53.084;8.872;2023-04-29T06:00:58;10.30;99.90
32187;DHT22;18686;53.084;8.872;2023-04-29T06:03:29;10.30;99.90
32187;DHT22;18686;53.084;8.872;2023-04-29T06:06:20;10.40;99.90
32187;DHT22;18686;53.084;8.872;2023-04-29T06:09:02;10.50;99.90
32187;DHT22;18686;53.084;8.872;2023-04-29T06:11:39;10.50;99.90
32187;DHT22;18686;53.084;8.872;2023-04-29T06:14:07;10.50;99.90
32187;DHT22;18686;53.084;8.872;2023-04-29T06:16:36;10.60;99.90
32187;DHT22;18686;53.084;8.872;2023-04-29T06:19:06;10.60;99.90
32187;DHT22;18686;53.084;8.872;2023-04-29T06:21:34;10.50;99.90
32187;DHT22;18686;53.084;8.872;2023-04-29T06:24:03;10.60;99.90
32187;DHT22;18686;53.084;8.872;2023-04-29T06:26:31;10.70;99.90
32187;DHT22;18686;53.084;8.872;2023-04-29T06:28:59;10.70;99.90
32187;DHT22;18686;53.084;8.872;2023-04-29T06:31:27;10.70;99.90
32187;DHT22;18686;53.084;8.872;2023-04-29T06:33:59;10.80;99.90
32187;DHT22;18686;53.084;8.872;2023-04-29T06:36:30;10.90;99.90
32187;DHT22;18686;53.084;8.872;2023-04-29T06:39:01;11.00;99.90
32187;DHT22;18686;53.084;8.872;2023-04-29T06:41:47;10.90;99.90
32187;DHT22;18686;53.084;8.872;2023-04-29T06:44:32;11.00;99.90
32187;DHT22;18686;53.084;8.872;2023-04-29T06:47:19;11.00;99.90
32187;DHT22;18686;53.084;8.872;2023-04-29T06:49:54;11.10;99.90
32187;DHT22;18686;53.084;8.872;2023-04-29T06:52:23;11.10;99.90
32187;DHT22;18686;53.084;8.872;2023-04-29T06:54:51;11.20;99.90
32187;DHT22;18686;53.084;8.872;2023-04-29T06:57:20;11.20;99.90
32187;DHT22;18686;53.084;8.872;2023-04-29T06:59:48;11.30;99.90
32187;DHT22;18686;53.084;8.872;2023-04-29T07:02:16;11.40;99.90
32187;DHT22;18686;53.084;8.872;2023-04-29T07:04:46;11.50;99.90
32187;DHT22;18686;53.084;8.872;2023-04-29T07:07:15;11.60;99.90
32187;DHT22;18686;53.084;8.872;2023-04-29T07:09:45;11.80;99.90
32187;DHT22;18686;53.084;8.872;2023-04-29T07:12:13;11.90;99.90
32187;DHT22;18686;53.084;8.872;2023-04-29T07:14:41;12.10;99.90
32187;DHT22;18686;53.084;8.872;2023-04-29T07:17:09;12.10;99.90
32187;DHT22;18686;53.084;8.872;2023-04-29T07:19:41;12.20;99.90
32187;DHT22;18686;53.084;8.872;2023-04-29T07:22:09;12.30;99.90
32187;DHT22;18686;53.084;8.872;2023-04-29T07:24:38;12.50;99.90
32187;DHT22;18686;53.084;8.872;2023-04-29T07:27:07;12.60;99.90
32187;DHT22;18686;53.084;8.872;2023-04-29T07:29:35;12.70;99.90
32187;DHT22;18686;53.084;8.872;2023-04-29T07:32:04;12.80;99.90
32187;DHT22;18686;53.084;8.872;2023-04-29T07:34:34;12.80;99.90
32187;DHT22;18686;53.084;8.872;2023-04-29T07:37:03;12.90;99.90
32187;DHT22;18686;53.084;8.872;2023-04-29T07:39:31;13.10;99.90
32187;DHT22;18686;53.084;8.872;2023-04-29T07:42:01;13.30;99.90
32187;DHT22;18686;53.084;8.872;2023-04-29T07:44:32;13.40;99.90
32187;DHT22;18686;53.084;8.872;2023-04-29T07:47:00;13.60;99.90
32187;DHT22;18686;53.084;8.872;2023-04-29T07:49:28;13.90;99.90
32187;DHT22;18686;53.084;8.872;2023-04-29T07:51:56;14.10;99.90
32187;DHT22;18686;53.084;8.872;2023-04-29T07:54:24;14.40;99.90
32187;DHT22;18686;53.084;8.872;2023-04-29T07:56:53;14.80;99.90
32187;DHT22;18686;53.084;8.872;2023-04-29T07:59:21;15.20;99.90
32187;DHT22;18686;53.084;8.872;2023-04-29T08:01:51;15.60;99.90
32187;DHT22;18686;53.084;8.872;2023-04-29T08:04:20;15.80;99.90
32187;DHT22;18686;53.084;8.872;2023-04-29T08:06:56;16.20;99.90
32187;DHT22;18686;53.084;8.872;2023-04-29T08:09:25;16.40;99.90
32187;DHT22;18686;53.084;8.872;2023-04-29T08:11:53;16.50;99.90
32187;DHT22;18686;53.084;8.872;2023-04-29T08:14:21;16.80;99.90
32187;DHT22;18686;53.084;8.872;2023-04-29T08:16:50;16.90;99.90
32187;DHT22;18686;53.084;8.872;2023-04-29T08:19:19;17.00;99.90
32187;DHT22;18686;53.084;8.872;2023-04-29T08:21:48;17.10;99.90
32187;DHT22;18686;53.084;8.872;2023-04-29T08:24:17;17.20;99.90
32187;DHT22;18686;53.084;8.872;2023-04-29T08:26:46;17.30;99.90
32187;DHT22;18686;53.084;8.872;2023-04-29T08:29:14;17.40;99.90
32187;DHT22;18686;53.084;8.872;2023-04-29T08:31:42;17.40;99.90
32187;DHT22;18686;53.084;8.872;2023-04-29T08:34:12;17.40;99.90
32187;DHT22;18686;53.084;8.872;2023-04-29T08:36:40;17.60;99.90
32187;DHT22;18686;53.084;8.872;2023-04-29T08:39:08;18.00;99.90
32187;DHT22;18686;53.084;8.872;2023-04-29T08:41:36;18.20;97.80
32187;DHT22;18686;53.084;8.872;2023-04-29T08:44:05;18.60;95.50
32187;DHT22;18686;53.084;8.872;2023-04-29T08:46:33;18.80;92.00
32187;DHT22;18686;53.084;8.872;2023-04-29T08:49:02;18.90;88.70
32187;DHT22;18686;53.084;8.872;2023-04-29T08:51:32;19.20;86.10
32187;DHT22;18686;53.084;8.872;2023-04-29T08:54:00;19.60;83.40
32187;DHT22;18686;53.084;8.872;2023-04-29T08:56:29;19.90;74.70
32187;DHT22;18686;53.084;8.872;2023-04-29T08:58:58;20.20;71.70
32187;DHT22;18686;53.084;8.872;2023-04-29T09:01:28;20.50;70.60
32187;DHT22;18686;53.084;8.872;2023-04-29T09:04:06;20.60;64.80
32187;DHT22;18686;53.084;8.872;2023-04-29T09:06:38;21.00;62.80
32187;DHT22;18686;53.084;8.872;2023-04-29T09:09:06;21.40;63.90
32187;DHT22;18686;53.084;8.872;2023-04-29T09:11:36;22.00;60.60
32187;DHT22;18686;53.084;8.872;2023-04-29T09:14:04;22.60;58.50
32187;DHT22;18686;53.084;8.872;2023-04-29T09:16:34;23.00;54.40
32187;DHT22;18686;53.084;8.872;2023-04-29T09:19:03;23.30;51.50
32187;DHT22;18686;53.084;8.872;2023-04-29T09:21:32;23.60;50.10
32187;DHT22;18686;53.084;8.872;2023-04-29T09:24:02;23.50;49.60
32187;DHT22;18686;53.084;8.872;2023-04-29T09:26:40;23.30;49.40
32187;DHT22;18686;53.084;8.872;2023-04-29T09:29:10;23.30;49.10
32187;DHT22;18686;53.084;8.872;2023-04-29T09:31:40;23.70;48.60
32187;DHT22;18686;53.084;8.872;2023-04-29T09:34:08;24.10;48.30
32187;DHT22;18686;53.084;8.872;2023-04-29T09:36:40;24.30;46.80
32187;DHT22;18686;53.084;8.872;2023-04-29T09:39:11;24.50;46.50
32187;DHT22;18686;53.084;8.872;2023-04-29T09:41:41;24.50;46.20
32187;DHT22;18686;53.084;8.872;2023-04-29T09:44:10;24.70;44.90
32187;DHT22;18686;53.084;8.872;2023-04-29T09:46:38;25.20;44.10
32187;DHT22;18686;53.084;8.872;2023-04-29T09:51:58;26.20;43.30
32187;DHT22;18686;53.084;8.872;2023-04-29T09:54:29;26.50;42.70
32187;DHT22;18686;53.084;8.872;2023-04-29T09:56:59;26.80;40.90
32187;DHT22;18686;53.084;8.872;2023-04-29T09:59:40;27.10;41.50
32187;DHT22;18686;53.084;8.872;2023-04-29T10:02:12;27.50;40.50
32187;DHT22;18686;53.084;8.872;2023-04-29T10:04:44;28.00;40.70
32187;DHT22;18686;53.084;8.872;2023-04-29T10:07:14;28.40;39.50
32187;DHT22;18686;53.084;8.872;2023-04-29T10:09:45;28.30;38.50
32187;DHT22;18686;53.084;8.872;2023-04-29T10:12:15;28.00;38.80
32187;DHT22;18686;53.084;8.872;2023-04-29T10:14:47;27.60;39.40
32187;DHT22;18686;53.084;8.872;2023-04-29T10:17:23;27.40;39.50
32187;DHT22;18686;53.084;8.872;2023-04-29T10:19:51;27.80;39.70
32187;DHT22;18686;53.084;8.872;2023-04-29T10:22:32;28.40;38.40
32187;DHT22;18686;53.084;8.872;2023-04-29T10:25:17;28.80;37.60
32187;DHT22;18686;53.084;8.872;2023-04-29T10:27:47;28.60;37.40
32187;DHT22;18686;53.084;8.872;2023-04-29T10:33:02;26.90;38.60
32187;DHT22;18686;53.084;8.872;2023-04-29T10:35:32;27.30;38.50
32187;DHT22;18686;53.084;8.872;2023-04-29T10:38:00;27.70;39.10
32187;DHT22;18686;53.084;8.872;2023-04-29T10:40:39;27.80;38.80
32187;DHT22;18686;53.084;8.872;2023-04-29T10:43:12;28.90;37.30
32187;DHT22;18686;53.084;8.872;2023-04-29T10:51:30;29.40;34.90
32187;DHT22;18686;53.084;8.872;2023-04-29T10:54:03;29.00;35.70
32187;DHT22;18686;53.084;8.872;2023-04-29T10:56:42;29.70;34.40
32187;DHT22;18686;53.084;8.872;2023-04-29T10:59:14;29.70;34.00
32187;DHT22;18686;53.084;8.872;2023-04-29T11:01:49;30.80;33.40
32187;DHT22;18686;53.084;8.872;2023-04-29T11:07:47;32.40;30.70
32187;DHT22;18686;53.084;8.872;2023-04-29T11:10:34;32.20;31.10
32187;DHT22;18686;53.084;8.872;2023-04-29T11:13:23;33.50;31.80
32187;DHT22;18686;53.084;8.872;2023-04-29T11:22:24;34.10;29.70
32187;DHT22;18686;53.084;8.872;2023-04-29T11:30:59;33.80;29.90
32187;DHT22;18686;53.084;8.872;2023-04-29T11:33:31;33.70;28.50
32187;DHT22;18686;53.084;8.872;2023-04-29T11:35:59;34.10;28.70
32187;DHT22;18686;53.084;8.872;2023-04-29T11:38:29;36.00;28.40
32187;DHT22;18686;53.084;8.872;2023-04-29T11:40:58;37.20;27.50
32187;DHT22;18686;53.084;8.872;2023-04-29T11:43:26;38.70;27.10
32187;DHT22;18686;53.084;8.872;2023-04-29T11:45:55;40.60;26.40
32187;DHT22;18686;53.084;8.872;2023-04-29T11:48:25;41.20;25.80
32187;DHT22;18686;53.084;8.872;2023-04-29T11:50:57;41.30;24.80
32187;DHT22;18686;53.084;8.872;2023-04-29T11:53:26;41.00;24.70
32187;DHT22;18686;53.084;8.872;2023-04-29T11:55:54;41.40;24.80
32187;DHT22;18686;53.084;8.872;2023-04-29T11:58:23;42.10;24.00
32187;DHT22;18686;53.084;8.872;2023-04-29T12:00:51;41.90;23.40
32187;DHT22;18686;53.084;8.872;2023-04-29T12:03:20;42.30;24.20
32187;DHT22;18686;53.084;8.872;2023-04-29T12:05:53;42.90;23.70
32187;DHT22;18686;53.084;8.872;2023-04-29T12:08:22;42.90;23.20
32187;DHT22;18686;53.084;8.872;2023-04-29T12:10:53;43.30;23.80
32187;DHT22;18686;53.084;8.872;2023-04-29T12:13:22;44.50;23.90
32187;DHT22;18686;53.084;8.872;2023-04-29T12:15:51;45.20;23.00
32187;DHT22;18686;53.084;8.872;2023-04-29T12:18:20;45.70;22.40
32187;DHT22;18686;53.084;8.872;2023-04-29T12:20:50;46.40;22.60
32187;DHT22;18686;53.084;8.872;2023-04-29T12:23:20;47.10;22.40
32187;DHT22;18686;53.084;8.872;2023-04-29T12:25:50;47.80;22.30
32187;DHT22;18686;53.084;8.872;2023-04-29T12:28:20;47.80;21.70
32187;DHT22;18686;53.084;8.872;2023-04-29T12:30:49;47.70;21.90
32187;DHT22;18686;53.084;8.872;2023-04-29T12:33:21;47.60;21.70
32187;DHT22;18686;53.084;8.872;2023-04-29T12:35:53;47.90;21.30
32187;DHT22;18686;53.084;8.872;2023-04-29T12:38:22;48.10;21.80
32187;DHT22;18686;53.084;8.872;2023-04-29T12:40:52;47.00;21.50
32187;DHT22;18686;53.084;8.872;2023-04-29T12:43:27;46.70;21.80
32187;DHT22;18686;53.084;8.872;2023-04-29T12:49:05;47.20;21.70
32187;DHT22;18686;53.084;8.872;2023-04-29T12:51:35;46.80;21.70
32187;DHT22;18686;53.084;8.872;2023-04-29T12:54:04;47.00;22.00
32187;DHT22;18686;53.084;8.872;2023-04-29T12:56:33;47.00;21.80
32187;DHT22;18686;53.084;8.872;2023-04-29T12:59:04;46.10;21.80
32187;DHT22;18686;53.084;8.872;2023-04-29T13:01:34;45.80;21.90
32187;DHT22;18686;53.084;8.872;2023-04-29T13:04:02;45.00;21.70
32187;DHT22;18686;53.084;8.872;2023-04-29T13:06:32;44.90;21.60
32187;DHT22;18686;53.084;8.872;2023-04-29T13:09:02;45.50;21.70
32187;DHT22;18686;53.084;8.872;2023-04-29T13:11:30;45.40;21.60
32187;DHT22;18686;53.084;8.872;2023-04-29T13:14:00;45.50;20.90
32187;DHT22;18686;53.084;8.872;2023-04-29T13:16:28;45.20;20.90
32187;DHT22;18686;53.084;8.872;2023-04-29T13:18:56;44.90;21.30
32187;DHT22;18686;53.084;8.872;2023-04-29T13:21:44;44.60;21.40
32187;DHT22;18686;53.084;8.872;2023-04-29T13:24:14;44.30;21.30
32187;DHT22;18686;53.084;8.872;2023-04-29T13:26:44;44.10;21.30
32187;DHT22;18686;53.084;8.872;2023-04-29T13:29:17;44.10;21.60
32187;DHT22;18686;53.084;8.872;2023-04-29T13:31:45;44.30;21.20
32187;DHT22;18686;53.084;8.872;2023-04-29T13:34:14;44.10;21.60
32187;DHT22;18686;53.084;8.872;2023-04-29T13:36:42;44.30;21.00
32187;DHT22;18686;53.084;8.872;2023-04-29T13:39:10;44.50;21.50
32187;DHT22;18686;53.084;8.872;2023-04-29T13:41:42;44.60;21.50
32187;DHT22;18686;53.084;8.872;2023-04-29T13:44:12;44.50;21.60
32187;DHT22;18686;53.084;8.872;2023-04-29T13:46:58;44.30;21.50
32187;DHT22;18686;53.084;8.872;2023-04-29T13:49:28;44.80;21.70
32187;DHT22;18686;53.084;8.872;2023-04-29T13:52:16;45.10;21.80
32187;DHT22;18686;53.084;8.872;2023-04-29T13:54:47;45.10;21.20
32187;DHT22;18686;53.084;8.872;2023-04-29T13:57:36;45.00;21.10
32187;DHT22;18686;53.084;8.872;2023-04-29T14:00:24;45.30;21.30
32187;DHT22;18686;53.084;8.872;2023-04-29T14:03:12;44.70;21.20
32187;DHT22;18686;53.084;8.872;2023-04-29T14:05:40;43.50;21.00
32187;DHT22;18686;53.084;8.872;2023-04-29T14:08:09;41.60;21.00
32187;DHT22;18686;53.084;8.872;2023-04-29T14:10:37;39.90;21.70
32187;DHT22;18686;53.084;8.872;2023-04-29T14:13:06;37.50;22.50
32187;DHT22;18686;53.084;8.872;2023-04-29T14:15:35;35.30;23.50
32187;DHT22;18686;53.084;8.872;2023-04-29T14:18:03;33.00;24.10
32187;DHT22;18686;53.084;8.872;2023-04-29T14:20:33;30.70;25.50
32187;DHT22;18686;53.084;8.872;2023-04-29T14:23:02;28.70;26.70
32187;DHT22;18686;53.084;8.872;2023-04-29T14:25:30;27.20;28.40
32187;DHT22;18686;53.084;8.872;2023-04-29T14:27:59;25.90;29.80
32187;DHT22;18686;53.084;8.872;2023-04-29T14:30:31;24.90;31.20
32187;DHT22;18686;53.084;8.872;2023-04-29T14:32:59;23.90;32.00
32187;DHT22;18686;53.084;8.872;2023-04-29T14:35:27;22.90;33.50
32187;DHT22;18686;53.084;8.872;2023-04-29T14:37:55;22.10;34.60
32187;DHT22;18686;53.084;8.872;2023-04-29T14:40:23;21.40;35.60
32187;DHT22;18686;53.084;8.872;2023-04-29T14:42:52;20.70;37.90
32187;DHT22;18686;53.084;8.872;2023-04-29T14:45:20;20.10;38.60
32187;DHT22;18686;53.084;8.872;2023-04-29T14:47:49;19.50;39.60
32187;DHT22;18686;53.084;8.872;2023-04-29T14:50:17;19.20;41.60
32187;DHT22;18686;53.084;8.872;2023-04-29T14:52:46;18.80;42.40
32187;DHT22;18686;53.084;8.872;2023-04-29T14:55:14;18.50;45.10
32187;DHT22;18686;53.084;8.872;2023-04-29T14:57:42;18.20;43.40
32187;DHT22;18686;53.084;8.872;2023-04-29T15:00:13;17.90;43.40
32187;DHT22;18686;53.084;8.872;2023-04-29T15:02:41;17.70;43.10
32187;DHT22;18686;53.084;8.872;2023-04-29T15:05:11;17.50;43.80
32187;DHT22;18686;53.084;8.872;2023-04-29T15:07:39;17.20;46.30
32187;DHT22;18686;53.084;8.872;2023-04-29T15:10:08;17.10;47.20
32187;DHT22;18686;53.084;8.872;2023-04-29T15:12:36;16.90;47.80
32187;DHT22;18686;53.084;8.872;2023-04-29T15:15:06;16.80;48.50
32187;DHT22;18686;53.084;8.872;2023-04-29T15:17:34;16.70;49.60
32187;DHT22;18686;53.084;8.872;2023-04-29T15:20:03;16.50;50.80
32187;DHT22;18686;53.084;8.872;2023-04-29T15:22:33;16.40;51.10
32187;DHT22;18686;53.084;8.872;2023-04-29T15:25:01;16.30;52.70
32187;DHT22;18686;53.084;8.872;2023-04-29T15:27:29;16.20;53.00
32187;DHT22;18686;53.084;8.872;2023-04-29T15:29:57;16.10;54.40
32187;DHT22;18686;53.084;8.872;2023-04-29T15:32:26;15.90;55.20
32187;DHT22;18686;53.084;8.872;2023-04-29T15:34:57;15.80;55.20
32187;DHT22;18686;53.084;8.872;2023-04-29T15:37:26;15.70;56.90
32187;DHT22;18686;53.084;8.872;2023-04-29T15:39:57;15.60;57.40
32187;DHT22;18686;53.084;8.872;2023-04-29T15:42:26;15.60;57.60
32187;DHT22;18686;53.084;8.872;2023-04-29T15:44:54;15.60;58.30
32187;DHT22;18686;53.084;8.872;2023-04-29T15:47:22;15.60;57.70
32187;DHT22;18686;53.084;8.872;2023-04-29T15:49:50;15.50;58.30
32187;DHT22;18686;53.084;8.872;2023-04-29T15:52:19;15.40;59.00
32187;DHT22;18686;53.084;8.872;2023-04-29T15:54:47;15.20;60.20
32187;DHT22;18686;53.084;8.872;2023-04-29T15:57:16;15.10;61.10
32187;DHT22;18686;53.084;8.872;2023-04-29T15:59:44;15.10;62.20
32187;DHT22;18686;53.084;8.872;2023-04-29T16:02:12;15.10;62.60
32187;DHT22;18686;53.084;8.872;2023-04-29T16:04:41;15.30;63.30
32187;DHT22;18686;53.084;8.872;2023-04-29T16:07:09;15.40;61.20
32187;DHT22;18686;53.084;8.872;2023-04-29T16:09:38;15.50;61.30
32187;DHT22;18686;53.084;8.872;2023-04-29T16:12:06;15.50;61.30
32187;DHT22;18686;53.084;8.872;2023-04-29T16:14:38;15.50;60.60
32187;DHT22;18686;53.084;8.872;2023-04-29T16:17:06;15.50;60.50
32187;DHT22;18686;53.084;8.872;2023-04-29T16:19:34;15.50;61.00
32187;DHT22;18686;53.084;8.872;2023-04-29T16:22:03;15.50;61.30
32187;DHT22;18686;53.084;8.872;2023-04-29T16:24:31;15.50;61.50
32187;DHT22;18686;53.084;8.872;2023-04-29T16:27:01;15.50;61.10
32187;DHT22;18686;53.084;8.872;2023-04-29T16:29:30;15.40;61.30